sensor_id;sensor_type;location;lat;lon;timestamp;temperature;humidity
10245;DHT22;5167;52.164;10.530;2022-07-12T00:00:54;18.90;29.90
10245;DHT22;5167;52.164;10.530;2022-07-12T00:03:19;18.90;30.20
10245;DHT22;5167;52.164;10.530;2022-07-12T00:05:45;18.90;30.00
10245;DHT22;5167;52.164;10.530;2022-07-12T00:08:10;18.90;29.90
10245;DHT22;5167;52.164;10.530;2022-07-12T00:10:36;18.80;30.00
10245;DHT22;5167;52.164;10.530;2022-07-12T00:13:03;18.80;30.10
10245;DHT22;5167;52.164;10.530;2022-07-12T00:15:28;18.80;30.10
10245;DHT22;5167;52.164;10.530;2022-07-12T00:17:54;18.70;30.50
10245;DHT22;5167;52.164;10.530;2022-07-12T00:20:19;18.70;30.70
10245;DHT22;5167;52.164;10.530;2022-07-12T00:22:45;18.80;31.00
10245;DHT22;5167;52.164;10.530;2022-07-12T00:25:12;18.70;31.00
10245;DHT22;5167;52.164;10.530;2022-07-12T00:27:37;18.70;31.30
10245;DHT22;5167;52.164;10.530;2022-07-12T00:30:05;18.70;31.30
10245;DHT22;5167;52.164;10.530;2022-07-12T00:32:31;18.70;31.20
10245;DHT22;5167;52.164;10.530;2022-07-12T00:34:56;18.70;31.70
10245;DHT22;5167;52.164;10.530;2022-07-12T00:37:22;18.70;32.40
10245;DHT22;5167;52.164;10.530;2022-07-12T00:39:48;18.70;32.00
10245;DHT22;5167;52.164;10.530;2022-07-12T00:42:14;18.70;32.20
10245;DHT22;5167;52.164;10.530;2022-07-12T00:44:40;18.70;32.40
10245;DHT22;5167;52.164;10.530;2022-07-12T00:47:05;18.60;32.50
10245;DHT22;5167;52.164;10.530;2022-07-12T00:49:31;18.70;32.50
10245;DHT22;5167;52.164;10.530;2022-07-12T00:51:57;18.60;32.60
10245;DHT22;5167;52.164;10.530;2022-07-12T00:54:23;18.70;33.30
10245;DHT22;5167;52.164;10.530;2022-07-12T00:56:49;18.60;32.50
10245;DHT22;5167;52.164;10.530;2022-07-12T00:59:14;18.60;32.10
10245;DHT22;5167;52.164;10.530;2022-07-12T01:01:41;18.60;33.20
10245;DHT22;5167;52.164;10.530;2022-07-12T01:04:07;18.60;32.40
10245;DHT22;5167;52.164;10.530;2022-07-12T01:06:34;18.60;32.30
10245;DHT22;5167;52.164;10.530;2022-07-12T01:09:01;18.50;32.60
10245;DHT22;5167;52.164;10.530;2022-07-12T01:11:26;18.50;32.70
10245;DHT22;5167;52.164;10.530;2022-07-12T01:13:53;18.50;33.00
10245;DHT22;5167;52.164;10.530;2022-07-12T01:16:19;18.50;33.00
10245;DHT22;5167;52.164;10.530;2022-07-12T01:18:45;18.50;33.50
10245;DHT22;5167;52.164;10.530;2022-07-12T01:21:16;18.50;32.90
10245;DHT22;5167;52.164;10.530;2022-07-12T01:23:45;18.50;33.70
10245;DHT22;5167;52.164;10.530;2022-07-12T01:26:10;18.50;33.10
10245;DHT22;5167;52.164;10.530;2022-07-12T01:28:37;18.50;33.50
10245;DHT22;5167;52.164;10.530;2022-07-12T01:31:03;18.40;33.10
10245;DHT22;5167;52.164;10.530;2022-07-12T01:33:29;18.50;33.60
10245;DHT22;5167;52.164;10.530;2022-07-12T01:35:54;18.40;34.20
10245;DHT22;5167;52.164;10.530;2022-07-12T01:38:20;18.40;33.80
10245;DHT22;5167;52.164;10.530;2022-07-12T01:40:45;18.40;31.90
10245;DHT22;5167;52.164;10.530;2022-07-12T01:43:13;18.30;33.80
10245;DHT22;5167;52.164;10.530;2022-07-12T01:45:39;18.40;33.90
10245;DHT22;5167;52.164;10.530;2022-07-12T01:48:06;18.30;31.70
10245;DHT22;5167;52.164;10.530;2022-07-12T01:50:32;18.30;31.30
10245;DHT22;5167;52.164;10.530;2022-07-12T01:52:57;18.20;33.90
10245;DHT22;5167;52.164;10.530;2022-07-12T01:55:23;18.30;33.80
10245;DHT22;5167;52.164;10.530;2022-07-12T01:57:49;18.20;31.60
10245;DHT22;5167;52.164;10.530;2022-07-12T02:00:15;18.20;34.40
10245;DHT22;5167;52.164;10.530;2022-07-12T02:02:40;18.20;34.60
10245;DHT22;5167;52.164;10.530;2022-07-12T02:05:07;18.20;34.90
10245;DHT22;5167;52.164;10.530;2022-07-12T02:07:32;18.10;34.30
10245;DHT22;5167;52.164;10.530;2022-07-12T02:09:58;18.20;32.20
10245;DHT22;5167;52.164;10.530;2022-07-12T02:12:24;18.20;34.80
10245;DHT22;5167;52.164;10.530;2022-07-12T02:14:50;18.10;34.80
10245;DHT22;5167;52.164;10.530;2022-07-12T02:17:16;18.30;34.70
10245;DHT22;5167;52.164;10.530;2022-07-12T02:19:42;18.10;34.50
10245;DHT22;5167;52.164;10.530;2022-07-12T02:22:08;18.10;34.80
10245;DHT22;5167;52.164;10.530;2022-07-12T02:24:33;18.10;34.60
10245;DHT22;5167;52.164;10.530;2022-07-12T02:26:59;18.00;34.40
10245;DHT22;5167;52.164;10.530;2022-07-12T02:29:24;18.00;34.80
10245;DHT22;5167;52.164;10.530;2022-07-12T02:31:50;18.00;31.90
10245;DHT22;5167;52.164;10.530;2022-07-12T02:34:16;18.00;32.50
10245;DHT22;5167;52.164;10.530;2022-07-12T02:36:41;17.90;34.40
10245;DHT22;5167;52.164;10.530;2022-07-12T02:39:07;18.00;34.90
10245;DHT22;5167;52.164;10.530;2022-07-12T02:41:32;18.00;35.30
10245;DHT22;5167;52.164;10.530;2022-07-12T02:43:59;17.90;35.00
10245;DHT22;5167;52.164;10.530;2022-07-12T02:46:24;17.90;32.50
10245;DHT22;5167;52.164;10.530;2022-07-12T02:48:50;17.90;32.60
10245;DHT22;5167;52.164;10.530;2022-07-12T02:51:15;18.10;35.80
10245;DHT22;5167;52.164;10.530;2022-07-12T02:53:41;17.90;33.20
10245;DHT22;5167;52.164;10.530;2022-07-12T02:56:06;17.90;35.30
10245;DHT22;5167;52.164;10.530;2022-07-12T02:58:34;17.80;33.60
10245;DHT22;5167;52.164;10.530;2022-07-12T03:00:59;17.80;36.00
10245;DHT22;5167;52.164;10.530;2022-07-12T03:03:25;17.80;36.70
10245;DHT22;5167;52.164;10.530;2022-07-12T03:05:50;17.90;36.30
10245;DHT22;5167;52.164;10.530;2022-07-12T03:08:16;17.80;34.10
10245;DHT22;5167;52.164;10.530;2022-07-12T03:10:42;17.90;37.70
10245;DHT22;5167;52.164;10.530;2022-07-12T03:13:07;17.90;36.60
10245;DHT22;5167;52.164;10.530;2022-07-12T03:15:33;17.90;37.30
10245;DHT22;5167;52.164;10.530;2022-07-12T03:18:00;17.90;38.50
10245;DHT22;5167;52.164;10.530;2022-07-12T03:20:27;17.90;37.30
10245;DHT22;5167;52.164;10.530;2022-07-12T03:22:53;17.90;38.90
10245;DHT22;5167;52.164;10.530;2022-07-12T03:25:19;17.90;37.50
10245;DHT22;5167;52.164;10.530;2022-07-12T03:27:45;17.90;38.70
10245;DHT22;5167;52.164;10.530;2022-07-12T03:30:11;17.90;36.00
10245;DHT22;5167;52.164;10.530;2022-07-12T03:32:37;17.90;35.20
10245;DHT22;5167;52.164;10.530;2022-07-12T03:35:03;18.00;37.90
10245;DHT22;5167;52.164;10.530;2022-07-12T03:37:42;18.00;35.50
10245;DHT22;5167;52.164;10.530;2022-07-12T03:40:08;18.00;37.90
10245;DHT22;5167;52.164;10.530;2022-07-12T03:42:34;18.00;37.50
10245;DHT22;5167;52.164;10.530;2022-07-12T03:45:00;17.90;37.40
10245;DHT22;5167;52.164;10.530;2022-07-12T03:47:26;17.90;37.30
10245;DHT22;5167;52.164;10.530;2022-07-12T03:49:51;18.10;37.60
10245;DHT22;5167;52.164;10.530;2022-07-12T03:52:17;17.90;37.30
10245;DHT22;5167;52.164;10.530;2022-07-12T03:54:42;18.00;36.80
10245;DHT22;5167;52.164;10.530;2022-07-12T03:57:08;17.90;36.80
10245;DHT22;5167;52.164;10.530;2022-07-12T03:59:41;17.90;37.60
10245;DHT22;5167;52.164;10.530;2022-07-12T04:02:06;17.90;36.70
10245;DHT22;5167;52.164;10.530;2022-07-12T04:04:32;17.90;36.60
10245;DHT22;5167;52.164;10.530;2022-07-12T04:06:57;17.90;36.70
10245;DHT22;5167;52.164;10.530;2022-07-12T04:09:23;17.90;37.10
10245;DHT22;5167;52.164;10.530;2022-07-12T04:11:48;17.90;36.70
10245;DHT22;5167;52.164;10.530;2022-07-12T04:14:14;17.80;36.70
10245;DHT22;5167;52.164;10.530;2022-07-12T04:16:40;17.80;36.90
10245;DHT22;5167;52.164;10.530;2022-07-12T04:19:05;17.80;36.50
10245;DHT22;5167;52.164;10.530;2022-07-12T04:21:32;17.70;36.30
10245;DHT22;5167;52.164;10.530;2022-07-12T04:23:57;17.80;36.60
10245;DHT22;5167;52.164;10.530;2022-07-12T04:26:23;17.80;36.20
10245;DHT22;5167;52.164;10.530;2022-07-12T04:28:48;17.80;37.10
10245;DHT22;5167;52.164;10.530;2022-07-12T04:31:14;17.70;36.10
10245;DHT22;5167;52.164;10.530;2022-07-12T04:33:39;17.80;36.30
10245;DHT22;5167;52.164;10.530;2022-07-12T04:36:05;17.80;38.10
10245;DHT22;5167;52.164;10.530;2022-07-12T04:38:31;17.80;36.80
10245;DHT22;5167;52.164;10.530;2022-07-12T04:40:56;17.80;37.10
10245;DHT22;5167;52.164;10.530;2022-07-12T04:43:22;17.80;36.40
10245;DHT22;5167;52.164;10.530;2022-07-12T04:45:50;17.70;36.50
10245;DHT22;5167;52.164;10.530;2022-07-12T04:48:15;17.70;36.70
10245;DHT22;5167;52.164;10.530;2022-07-12T04:50:41;17.80;37.00
10245;DHT22;5167;52.164;10.530;2022-07-12T04:53:07;17.80;37.30
10245;DHT22;5167;52.164;10.530;2022-07-12T04:55:33;18.00;36.00
10245;DHT22;5167;52.164;10.530;2022-07-12T04:57:58;18.00;36.20
10245;DHT22;5167;52.164;10.530;2022-07-12T05:00:24;18.20;36.30
10245;DHT22;5167;52.164;10.530;2022-07-12T05:02:49;18.50;35.00
10245;DHT22;5167;52.164;10.530;2022-07-12T05:05:15;18.80;33.60
10245;DHT22;5167;52.164;10.530;2022-07-12T05:07:41;19.10;33.10
10245;DHT22;5167;52.164;10.530;2022-07-12T05:10:07;19.40;30.40
10245;DHT22;5167;52.164;10.530;2022-07-12T05:12:34;19.30;30.00
10245;DHT22;5167;52.164;10.530;2022-07-12T05:15:00;19.30;30.00
10245;DHT22;5167;52.164;10.530;2022-07-12T05:17:25;19.10;29.80
10245;DHT22;5167;52.164;10.530;2022-07-12T05:19:51;18.90;30.80
10245;DHT22;5167;52.164;10.530;2022-07-12T05:22:16;18.80;31.50
10245;DHT22;5167;52.164;10.530;2022-07-12T05:24:42;18.60;32.60
10245;DHT22;5167;52.164;10.530;2022-07-12T05:27:07;18.50;34.00
10245;DHT22;5167;52.164;10.530;2022-07-12T05:29:33;18.50;35.10
10245;DHT22;5167;52.164;10.530;2022-07-12T05:31:58;18.50;36.30
10245;DHT22;5167;52.164;10.530;2022-07-12T05:34:26;18.50;36.60
10245;DHT22;5167;52.164;10.530;2022-07-12T05:36:52;18.50;37.60
10245;DHT22;5167;52.164;10.530;2022-07-12T05:39:17;18.50;37.90
10245;DHT22;5167;52.164;10.530;2022-07-12T05:41:43;18.50;37.50
10245;DHT22;5167;52.164;10.530;2022-07-12T05:44:08;18.60;37.40
10245;DHT22;5167;52.164;10.530;2022-07-12T05:46:33;18.60;36.90
10245;DHT22;5167;52.164;10.530;2022-07-12T05:49:00;18.60;36.60
10245;DHT22;5167;52.164;10.530;2022-07-12T05:51:25;18.70;36.80
10245;DHT22;5167;52.164;10.530;2022-07-12T05:54:09;18.70;37.10
10245;DHT22;5167;52.164;10.530;2022-07-12T05:56:36;18.70;36.60
10245;DHT22;5167;52.164;10.530;2022-07-12T05:59:01;18.70;35.60
10245;DHT22;5167;52.164;10.530;2022-07-12T06:01:27;18.80;34.30
10245;DHT22;5167;52.164;10.530;2022-07-12T06:03:52;18.90;34.00
10245;DHT22;5167;52.164;10.530;2022-07-12T06:06:18;19.00;33.90
10245;DHT22;5167;52.164;10.530;2022-07-12T06:08:43;19.00;34.90
10245;DHT22;5167;52.164;10.530;2022-07-12T06:11:09;19.30;31.20
10245;DHT22;5167;52.164;10.530;2022-07-12T06:13:34;19.50;30.90
10245;DHT22;5167;52.164;10.530;2022-07-12T06:16:00;19.60;29.30
10245;DHT22;5167;52.164;10.530;2022-07-12T06:18:26;19.70;27.80
10245;DHT22;5167;52.164;10.530;2022-07-12T06:20:51;19.90;25.90
10245;DHT22;5167;52.164;10.530;2022-07-12T06:23:17;20.00;23.50
10245;DHT22;5167;52.164;10.530;2022-07-12T06:25:43;19.90;23.00
10245;DHT22;5167;52.164;10.530;2022-07-12T06:28:09;20.00;19.50
10245;DHT22;5167;52.164;10.530;2022-07-12T06:30:34;20.10;21.10
10245;DHT22;5167;52.164;10.530;2022-07-12T06:33:00;20.30;18.90
10245;DHT22;5167;52.164;10.530;2022-07-12T06:35:25;20.40;15.80
10245;DHT22;5167;52.164;10.530;2022-07-12T06:37:51;20.60;14.40
10245;DHT22;5167;52.164;10.530;2022-07-12T06:40:16;20.80;12.80
10245;DHT22;5167;52.164;10.530;2022-07-12T06:42:43;20.90;12.30
10245;DHT22;5167;52.164;10.530;2022-07-12T06:45:09;21.00;10.30
10245;DHT22;5167;52.164;10.530;2022-07-12T06:47:35;21.20;11.60
10245;DHT22;5167;52.164;10.530;2022-07-12T06:50:01;21.30;12.10
10245;DHT22;5167;52.164;10.530;2022-07-12T06:52:26;21.40;9.40
10245;DHT22;5167;52.164;10.530;2022-07-12T06:54:52;21.50;8.20
10245;DHT22;5167;52.164;10.530;2022-07-12T06:57:17;21.70;7.30
10245;DHT22;5167;52.164;10.530;2022-07-12T06:59:43;21.70;7.50
10245;DHT22;5167;52.164;10.530;2022-07-12T07:02:08;21.90;8.10
10245;DHT22;5167;52.164;10.530;2022-07-12T07:04:34;22.00;7.90
10245;DHT22;5167;52.164;10.530;2022-07-12T07:06:59;22.10;7.70
10245;DHT22;5167;52.164;10.530;2022-07-12T07:09:25;22.10;5.30
10245;DHT22;5167;52.164;10.530;2022-07-12T07:11:50;22.20;5.00
10245;DHT22;5167;52.164;10.530;2022-07-12T07:14:16;22.30;5.00
10245;DHT22;5167;52.164;10.530;2022-07-12T07:16:42;22.30;5.00
10245;DHT22;5167;52.164;10.530;2022-07-12T07:19:07;22.40;5.00
10245;DHT22;5167;52.164;10.530;2022-07-12T07:21:33;22.50;5.00
10245;DHT22;5167;52.164;10.530;2022-07-12T07:23:58;22.60;5.00
10245;DHT22;5167;52.164;10.530;2022-07-12T07:26:24;22.70;5.00
10245;DHT22;5167;52.164;10.530;2022-07-12T07:28:49;22.80;5.00
10245;DHT22;5167;52.164;10.530;2022-07-12T07:31:35;22.80;5.00
10245;DHT22;5167;52.164;10.530;2022-07-12T07:34:01;22.90;5.00
10245;DHT22;5167;52.164;10.530;2022-07-12T07:36:27;22.90;5.00
10245;DHT22;5167;52.164;10.530;2022-07-12T07:38:52;23.00;5.00
10245;DHT22;5167;52.164;10.530;2022-07-12T07:41:18;23.10;5.00
10245;DHT22;5167;52.164;10.530;2022-07-12T07:43:43;23.20;5.00
10245;DHT22;5167;52.164;10.530;2022-07-12T07:46:09;23.20;5.00
10245;DHT22;5167;52.164;10.530;2022-07-12T07:48:34;23.30;5.00
10245;DHT22;5167;52.164;10.530;2022-07-12T07:51:00;23.40;5.00
10245;DHT22;5167;52.164;10.530;2022-07-12T07:53:25;23.50;5.00
10245;DHT22;5167;52.164;10.530;2022-07-12T07:55:51;23.50;5.00
10245;DHT22;5167;52.164;10.530;2022-07-12T07:58:16;23.40;5.00
10245;DHT22;5167;52.164;10.530;2022-07-12T08:00:42;23.40;5.00
10245;DHT22;5167;52.164;10.530;2022-07-12T08:03:07;23.40;5.00
10245;DHT22;5167;52.164;10.530;2022-07-12T08:05:33;23.50;5.00
10245;DHT22;5167;52.164;10.530;2022-07-12T08:07:59;23.50;5.00
10245;DHT22;5167;52.164;10.530;2022-07-12T08:10:25;23.60;5.00
10245;DHT22;5167;52.164;10.530;2022-07-12T08:12:51;23.70;5.00
10245;DHT22;5167;52.164;10.530;2022-07-12T08:15:16;23.80;5.00
10245;DHT22;5167;52.164;10.530;2022-07-12T08:17:42;24.00;5.00
10245;DHT22;5167;52.164;10.530;2022-07-12T08:20:08;24.20;5.00
10245;DHT22;5167;52.164;10.530;2022-07-12T08:22:33;24.20;5.00
10245;DHT22;5167;52.164;10.530;2022-07-12T08:24:59;24.30;5.00
10245;DHT22;5167;52.164;10.530;2022-07-12T08:27:24;24.40;5.00
10245;DHT22;5167;52.164;10.530;2022-07-12T08:29:50;24.60;5.00
10245;DHT22;5167;52.164;10.530;2022-07-12T08:32:15;24.60;5.00
10245;DHT22;5167;52.164;10.530;2022-07-12T08:34:41;24.70;5.00
10245;DHT22;5167;52.164;10.530;2022-07-12T08:37:07;24.80;5.00
10245;DHT22;5167;52.164;10.530;2022-07-12T08:39:33;24.80;5.00
10245;DHT22;5167;52.164;10.530;2022-07-12T08:41:59;24.80;5.00
10245;DHT22;5167;52.164;10.530;2022-07-12T08:44:24;24.90;5.00
10245;DHT22;5167;52.164;10.530;2022-07-12T08:46:50;25.00;5.00
10245;DHT22;5167;52.164;10.530;2022-07-12T08:49:17;25.10;5.00
10245;DHT22;5167;52.164;10.530;2022-07-12T08:51:42;25.20;5.00
10245;DHT22;5167;52.164;10.530;2022-07-12T08:54:10;25.30;5.00
10245;DHT22;5167;52.164;10.530;2022-07-12T08:56:37;25.40;5.00
10245;DHT22;5167;52.164;10.530;2022-07-12T08:59:14;25.50;5.00
10245;DHT22;5167;52.164;10.530;2022-07-12T09:01:47;25.60;5.00
10245;DHT22;5167;52.164;10.530;2022-07-12T09:04:19;25.90;5.00
10245;DHT22;5167;52.164;10.530;2022-07-12T09:06:46;25.70;5.00
10245;DHT22;5167;52.164;10.530;2022-07-12T09:09:11;25.80;5.00
10245;DHT22;5167;52.164;10.530;2022-07-12T09:11:49;25.90;5.00
10245;DHT22;5167;52.164;10.530;2022-07-12T09:14:18;25.90;5.00
10245;DHT22;5167;52.164;10.530;2022-07-12T09:16:43;26.00;5.00
10245;DHT22;5167;52.164;10.530;2022-07-12T09:19:13;26.10;5.00
10245;DHT22;5167;52.164;10.530;2022-07-12T09:21:46;26.10;5.00
10245;DHT22;5167;52.164;10.530;2022-07-12T09:24:12;26.20;5.00
10245;DHT22;5167;52.164;10.530;2022-07-12T09:26:38;26.20;5.00
10245;DHT22;5167;52.164;10.530;2022-07-12T09:29:10;26.30;5.00
10245;DHT22;5167;52.164;10.530;2022-07-12T09:31:41;26.40;5.00
10245;DHT22;5167;52.164;10.530;2022-07-12T09:34:27;26.50;5.00
10245;DHT22;5167;52.164;10.530;2022-07-12T09:37:11;26.50;5.00
10245;DHT22;5167;52.164;10.530;2022-07-12T09:39:38;26.50;5.00
10245;DHT22;5167;52.164;10.530;2022-07-12T09:42:05;26.70;5.00
10245;DHT22;5167;52.164;10.530;2022-07-12T09:44:32;26.70;5.00
10245;DHT22;5167;52.164;10.530;2022-07-12T09:46:58;26.80;5.00
10245;DHT22;5167;52.164;10.530;2022-07-12T09:49:26;26.90;5.00
10245;DHT22;5167;52.164;10.530;2022-07-12T09:51:55;27.10;5.00
10245;DHT22;5167;52.164;10.530;2022-07-12T09:54:25;27.10;5.00
10245;DHT22;5167;52.164;10.530;2022-07-12T09:56:53;27.20;5.00
10245;DHT22;5167;52.164;10.530;2022-07-12T09:59:23;27.30;5.00
10245;DHT22;5167;52.164;10.530;2022-07-12T10:01:50;27.40;5.00
10245;DHT22;5167;52.164;10.530;2022-07-12T10:04:20;27.40;5.00
10245;DHT22;5167;52.164;10.530;2022-07-12T10:06:47;27.60;5.00
10245;DHT22;5167;52.164;10.530;2022-07-12T10:09:13;27.70;5.00
10245;DHT22;5167;52.164;10.530;2022-07-12T10:11:39;27.70;5.00
10245;DHT22;5167;52.164;10.530;2022-07-12T10:14:05;27.70;5.00
10245;DHT22;5167;52.164;10.530;2022-07-12T10:16:34;27.60;5.00
10245;DHT22;5167;52.164;10.530;2022-07-12T10:19:29;27.70;5.00
10245;DHT22;5167;52.164;10.530;2022-07-12T10:22:00;27.60;5.00
10245;DHT22;5167;52.164;10.530;2022-07-12T10:29:47;27.60;5.00
10245;DHT22;5167;52.164;10.530;2022-07-12T10:32:27;27.70;5.00
10245;DHT22;5167;52.164;10.530;2022-07-12T10:35:01;27.70;5.00
10245;DHT22;5167;52.164;10.530;2022-07-12T10:37:27;27.90;5.00
10245;DHT22;5167;52.164;10.530;2022-07-12T10:40:16;28.00;5.00
10245;DHT22;5167;52.164;10.530;2022-07-12T10:45:30;28.20;5.00
10245;DHT22;5167;52.164;10.530;2022-07-12T10:47:56;28.40;5.00
10245;DHT22;5167;52.164;10.530;2022-07-12T11:01:18;28.70;5.00
10245;DHT22;5167;52.164;10.530;2022-07-12T11:04:07;28.70;5.00
10245;DHT22;5167;52.164;10.530;2022-07-12T11:06:40;28.80;5.00
10245;DHT22;5167;52.164;10.530;2022-07-12T11:09:16;28.80;5.00
10245;DHT22;5167;52.164;10.530;2022-07-12T11:11:44;28.70;5.00
10245;DHT22;5167;52.164;10.530;2022-07-12T11:14:11;28.80;5.00
10245;DHT22;5167;52.164;10.530;2022-07-12T11:16:47;28.90;5.00
10245;DHT22;5167;52.164;10.530;2022-07-12T11:19:14;29.00;5.00
10245;DHT22;5167;52.164;10.530;2022-07-12T11:21:43;29.00;5.00
10245;DHT22;5167;52.164;10.530;2022-07-12T11:24:20;29.10;5.00
10245;DHT22;5167;52.164;10.530;2022-07-12T11:26:47;29.10;5.00
10245;DHT22;5167;52.164;10.530;2022-07-12T11:29:13;29.20;5.00
10245;DHT22;5167;52.164;10.530;2022-07-12T11:31:39;29.20;5.00
10245;DHT22;5167;52.164;10.530;2022-07-12T11:34:04;29.20;5.00
10245;DHT22;5167;52.164;10.530;2022-07-12T11:36:31;29.10;5.00
10245;DHT22;5167;52.164;10.530;2022-07-12T11:38:57;29.10;5.00
10245;DHT22;5167;52.164;10.530;2022-07-12T11:41:23;29.10;5.00
10245;DHT22;5167;52.164;10.530;2022-07-12T11:43:50;29.10;5.00
10245;DHT22;5167;52.164;10.530;2022-07-12T11:46:15;29.10;5.00
10245;DHT22;5167;52.164;10.530;2022-07-12T11:48:42;29.20;5.00
10245;DHT22;5167;52.164;10.530;2022-07-12T11:51:09;29.20;5.00
10245;DHT22;5167;52.164;10.530;2022-07-12T11:53:36;29.30;5.00
10245;DHT22;5167;52.164;10.530;2022-07-12T11:56:04;29.30;5.00
10245;DHT22;5167;52.164;10.530;2022-07-12T11:58:30;29.40;5.00
10245;DHT22;5167;52.164;10.530;2022-07-12T12:00:58;29.30;5.00
10245;DHT22;5167;52.164;10.530;2022-07-12T12:03:24;29.30;5.00
10245;DHT22;5167;52.164;10.530;2022-07-12T12:05:55;29.40;5.00
10245;DHT22;5167;52.164;10.530;2022-07-12T12:08:21;29.30;5.00
10245;DHT22;5167;52.164;10.530;2022-07-12T12:10:58;29.40;5.00
10245;DHT22;5167;52.164;10.530;2022-07-12T12:13:28;29.30;5.00
10245;DHT22;5167;52.164;10.530;2022-07-12T12:18:36;29.40;5.00
10245;DHT22;5167;52.164;10.530;2022-07-12T12:21:07;29.50;5.00
10245;DHT22;5167;52.164;10.530;2022-07-12T12:23:34;29.50;5.00
10245;DHT22;5167;52.164;10.530;2022-07-12T12:26:19;29.50;5.00
10245;DHT22;5167;52.164;10.530;2022-07-12T12:28:53;29.50;5.00
10245;DHT22;5167;52.164;10.530;2022-07-12T12:31:20;29.40;5.00
10245;DHT22;5167;52.164;10.530;2022-07-12T12:33:48;29.40;5.00
10245;DHT22;5167;52.164;10.530;2022-07-12T12:38:43;29.40;5.00
10245;DHT22;5167;52.164;10.530;2022-07-12T12:41:10;29.30;5.00
10245;DHT22;5167;52.164;10.530;2022-07-12T12:43:36;29.40;5.00
10245;DHT22;5167;52.164;10.530;2022-07-12T12:46:02;29.40;5.00
10245;DHT22;5167;52.164;10.530;2022-07-12T12:48:32;29.40;5.00
10245;DHT22;5167;52.164;10.530;2022-07-12T12:51:11;29.40;5.00
10245;DHT22;5167;52.164;10.530;2022-07-12T12:53:38;29.40;5.00
10245;DHT22;5167;52.164;10.530;2022-07-12T12:56:10;29.50;5.00
10245;DHT22;5167;52.164;10.530;2022-07-12T12:58:36;29.40;5.00
10245;DHT22;5167;52.164;10.530;2022-07-12T13:01:03;29.40;5.00
10245;DHT22;5167;52.164;10.530;2022-07-12T13:03:29;29.40;5.00
10245;DHT22;5167;52.164;10.530;2022-07-12T13:05:55;29.40;5.00
10245;DHT22;5167;52.164;10.530;2022-07-12T13:08:21;29.50;5.00
10245;DHT22;5167;52.164;10.530;2022-07-12T13:10:47;29.40;5.00
10245;DHT22;5167;52.164;10.530;2022-07-12T13:13:33;29.30;5.00
10245;DHT22;5167;52.164;10.530;2022-07-12T13:15:59;29.40;5.00
10245;DHT22;5167;52.164;10.530;2022-07-12T13:18:24;29.40;5.00
10245;DHT22;5167;52.164;10.530;2022-07-12T13:20:49;29.40;5.00
10245;DHT22;5167;52.164;10.530;2022-07-12T13:23:15;29.40;5.00
10245;DHT22;5167;52.164;10.530;2022-07-12T13:25:40;29.40;5.00
10245;DHT22;5167;52.164;10.530;2022-07-12T13:28:06;29.40;5.00
10245;DHT22;5167;52.164;10.530;2022-07-12T13:30:31;29.30;5.00
10245;DHT22;5167;52.164;10.530;2022-07-12T13:32:57;29.30;5.00
10245;DHT22;5167;52.164;10.530;2022-07-12T13:35:22;29.30;5.00
10245;DHT22;5167;52.164;10.530;2022-07-12T13:37:48;29.30;5.00
10245;DHT22;5167;52.164;10.530;2022-07-12T13:40:13;29.30;5.00
10245;DHT22;5167;52.164;10.530;2022-07-12T13:42:47;29.20;5.00
10245;DHT22;5167;52.164;10.530;2022-07-12T13:45:16;29.20;5.00
10245;DHT22;5167;52.164;10.530;2022-07-12T13:47:42;29.10;5.00
10245;DHT22;5167;52.164;10.530;2022-07-12T13:50:09;29.20;5.00
10245;DHT22;5167;52.164;10.530;2022-07-12T13:52:35;29.20;5.00
10245;DHT22;5167;52.164;10.530;2022-07-12T13:55:00;29.20;5.00
10245;DHT22;5167;52.164;10.530;2022-07-12T13:57:26;29.10;5.00
10245;DHT22;5167;52.164;10.530;2022-07-12T13:59:52;29.10;5.00
10245;DHT22;5167;52.164;10.530;2022-07-12T14:02:18;29.00;5.00
10245;DHT22;5167;52.164;10.530;2022-07-12T14:04:44;29.00;5.00
10245;DHT22;5167;52.164;10.530;2022-07-12T14:07:10;29.00;5.00
10245;DHT22;5167;52.164;10.530;2022-07-12T14:09:36;29.00;5.00
10245;DHT22;5167;52.164;10.530;2022-07-12T14:12:01;29.10;5.00
10245;DHT22;5167;52.164;10.530;2022-07-12T14:14:30;29.10;5.00
10245;DHT22;5167;52.164;10.530;2022-07-12T14:17:14;29.00;5.00
10245;DHT22;5167;52.164;10.530;2022-07-12T14:19:40;29.10;5.00
10245;DHT22;5167;52.164;10.530;2022-07-12T14:22:05;29.10;5.00
10245;DHT22;5167;52.164;10.530;2022-07-12T14:24:31;29.10;5.00
10245;DHT22;5167;52.164;10.530;2022-07-12T14:26:56;29.10;5.00
10245;DHT22;5167;52.164;10.530;2022-07-12T14:29:22;29.20;5.00
10245;DHT22;5167;52.164;10.530;2022-07-12T14:31:47;29.10;5.00
10245;DHT22;5167;52.164;10.530;2022-07-12T14:34:15;29.10;5.00
10245;DHT22;5167;52.164;10.530;2022-07-12T14:36:40;29.00;5.00
10245;DHT22;5167;52.164;10.530;2022-07-12T14:39:06;29.10;5.00
10245;DHT22;5167;52.164;10.530;2022-07-12T14:41:31;29.10;5.00
10245;DHT22;5167;52.164;10.530;2022-07-12T14:43:57;29.00;5.00
10245;DHT22;5167;52.164;10.530;2022-07-12T14:46:22;29.00;5.00
10245;DHT22;5167;52.164;10.530;2022-07-12T14:48:48;29.00;5.00
10245;DHT22;5167;52.164;10.530;2022-07-12T14:51:14;29.00;5.00
10245;DHT22;5167;52.164;10.530;2022-07-12T14:53:39;29.00;5.00
10245;DHT22;5167;52.164;10.530;2022-07-12T14:56:05;29.10;5.00
10245;DHT22;5167;52.164;10.530;2022-07-12T14:58:31;29.00;5.00
10245;DHT22;5167;52.164;10.530;2022-07-12T15:00:56;29.10;5.00
10245;DHT22;5167;52.164;10.530;2022-07-12T15:03:23;29.00;5.00
10245;DHT22;5167;52.164;10.530;2022-07-12T15:05:50;29.00;5.00
10245;DHT22;5167;52.164;10.530;2022-07-12T15:08:15;29.00;5.00
10245;DHT22;5167;52.164;10.530;2022-07-12T15:10:41;28.90;5.00
10245;DHT22;5167;52.164;10.530;2022-07-12T15:13:06;28.90;5.00
10245;DHT22;5167;52.164;10.530;2022-07-12T15:15:32;28.90;5.00
10245;DHT22;5167;52.164;10.530;2022-07-12T15:17:58;28.90;5.00
10245;DHT22;5167;52.164;10.530;2022-07-12T15:20:24;28.90;5.00
10245;DHT22;5167;52.164;10.530;2022-07-12T15:22:49;28.90;5.00
10245;DHT22;5167;52.164;10.530;2022-07-12T15:25:15;28.80;5.00
10245;DHT22;5167;52.164;10.530;2022-07-12T15:27:40;28.90;5.00
10245;DHT22;5167;52.164;10.530;2022-07-12T15:30:06;28.90;5.00
10245;DHT22;5167;52.164;10.530;2022-07-12T15:32:32;28.90;5.00
10245;DHT22;5167;52.164;10.530;2022-07-12T15:34:57;28.90;5.00
10245;DHT22;5167;52.164;10.530;2022-07-12T15:37:23;28.90;5.00
10245;DHT22;5167;52.164;10.530;2022-07-12T15:39:48;28.90;5.00
10245;DHT22;5167;52.164;10.530;2022-07-12T15:42:14;28.90;5.00
10245;DHT22;5167;52.164;10.530;2022-07-12T15:44:40;28.90;5.00
10245;DHT22;5167;52.164;10.530;2022-07-12T15:47:07;28.90;5.00
10245;DHT22;5167;52.164;10.530;2022-07-12T15:49:32;28.90;5.00
10245;DHT22;5167;52.164;10.530;2022-07-12T15:51:58;28.90;5.00
10245;DHT22;5167;52.164;10.530;2022-07-12T15:54:42;28.90;5.00
10245;DHT22;5167;52.164;10.530;2022-07-12T15:57:07;28.90;5.00
10245;DHT22;5167;52.164;10.530;2022-07-12T15:59:34;28.80;5.00
10245;DHT22;5167;52.164;10.530;2022-07-12T16:02:00;28.90;5.00